Time;durP1;ratioP1;P1;durP2;ratioP2;P2;SDS_P1;SDS_P2;PMS_P1;PMS_P2;Temp;Humidity;BMP_temperature;BMP_pressure;BME280_temperature;BME280_humidity;BME280_pressure;Samples;Min_cycle;Max_cycle;Signal;HPM_P1;HPM_P2
2020/12/26 00:01:56;;;;;;;25.52;14.40;;;;;;;1.22;76.91;97198.84;1801049;78;25710;-83
2020/12/26 00:04:23;;;;;;;24.00;13.25;;;;;;;1.02;76.72;97197.75;1822819;78;26393;-83
2020/12/26 00:06:51;;;;;;;24.27;12.30;;;;;;;0.96;76.66;97203.71;1795073;78;26296;-83
2020/12/26 00:09:18;;;;;;;21.23;12.50;;;;;;;0.97;76.68;97204.02;1816726;78;27489;-84
2020/12/26 00:11:46;;;;;;;24.43;12.60;;;;;;;0.97;76.59;97208.01;1812690;78;25673;-84
2020/12/26 00:14:13;;;;;;;19.37;11.03;;;;;;;0.97;76.47;97207.17;1820745;78;26163;-84
2020/12/26 00:16:40;;;;;;;20.68;10.90;;;;;;;0.96;76.37;97211.69;1803712;78;25819;-83
2020/12/26 00:19:09;;;;;;;18.25;9.63;;;;;;;0.99;76.35;97215.34;1814913;78;25914;-84
2020/12/26 00:21:37;;;;;;;22.87;11.80;;;;;;;1.01;76.31;97212.03;1809020;78;28373;-84
2020/12/26 00:24:04;;;;;;;22.77;10.65;;;;;;;1.01;76.16;97202.73;1817956;78;25758;-83
2020/12/26 00:26:32;;;;;;;20.97;11.75;;;;;;;1.04;76.12;97197.11;1811805;78;25833;-83
2020/12/26 00:28:59;;;;;;;21.93;11.45;;;;;;;1.08;76.06;97205.12;1797366;78;25848;-85
2020/12/26 00:31:26;;;;;;;23.10;11.25;;;;;;;1.14;75.96;97214.77;1813369;78;26381;-84
2020/12/26 00:33:54;;;;;;;23.45;11.22;;;;;;;1.12;75.75;97212.26;1819242;78;28456;-85
2020/12/26 00:36:21;;;;;;;20.05;10.28;;;;;;;1.12;75.70;97212.75;1818198;78;25648;-82
2020/12/26 00:38:48;;;;;;;20.20;9.88;;;;;;;1.05;75.70;97212.56;1818329;78;25723;-83
2020/12/26 00:41:16;;;;;;;14.98;8.40;;;;;;;1.01;75.79;97212.53;1819195;78;25824;-83
2020/12/26 00:43:45;;;;;;;16.90;8.50;;;;;;;0.99;75.66;97221.98;1821748;78;25800;-84
2020/12/26 00:46:12;;;;;;;16.37;9.05;;;;;;;0.88;75.50;97223.56;1819744;78;27558;-82
2020/12/26 00:48:40;;;;;;;14.13;7.83;;;;;;;0.79;75.50;97219.69;1817008;78;26343;-84
2020/12/26 00:51:07;;;;;;;15.15;7.78;;;;;;;0.78;75.46;97216.69;1820267;78;25818;-84
2020/12/26 00:53:34;;;;;;;15.58;8.83;;;;;;;0.83;75.47;97219.23;1816472;78;26745;-85
2020/12/26 00:56:02;;;;;;;15.18;8.00;;;;;;;0.90;75.60;97222.09;1806179;78;25757;-84
2020/12/26 00:58:29;;;;;;;14.80;7.95;;;;;;;0.95;75.49;97221.97;1819583;78;27496;-84
2020/12/26 01:00:56;;;;;;;14.15;7.72;;;;;;;1.00;75.47;97231.63;1823767;78;26120;-84
2020/12/26 01:03:24;;;;;;;13.60;6.33;;;;;;;1.00;75.22;97235.61;1823333;78;25967;-85
2020/12/26 01:05:51;;;;;;;11.55;6.90;;;;;;;1.04;75.03;97232.16;1820155;78;25895;-84
2020/12/26 01:08:19;;;;;;;13.60;7.20;;;;;;;1.03;74.87;97226.01;1819900;78;25814;-84
2020/12/26 01:10:46;;;;;;;14.95;7.10;;;;;;;1.03;74.88;97231.81;1821209;78;28419;-83
2020/12/26 01:13:14;;;;;;;15.58;7.60;;;;;;;1.05;74.93;97233.83;1820378;78;25768;-83
2020/12/26 01:15:41;;;;;;;11.70;6.50;;;;;;;1.07;74.88;97231.36;1820865;78;25557;-83
2020/12/26 01:18:08;;;;;;;13.72;7.50;;;;;;;1.09;74.75;97230.68;1785244;78;26748;-85
2020/12/26 01:20:36;;;;;;;14.38;7.35;;;;;;;1.05;74.78;97226.69;1778395;78;25742;-81
2020/12/26 01:23:03;;;;;;;14.03;6.83;;;;;;;1.03;74.96;97227.34;1771281;78;28458;-82
2020/12/26 01:25:30;;;;;;;13.10;6.97;;;;;;;1.02;75.02;97230.98;1767951;78;25698;-85
2020/12/26 01:27:58;;;;;;;12.55;6.78;;;;;;;1.00;74.94;97222.32;1774159;78;25847;-83
2020/12/26 01:30:25;;;;;;;12.28;6.75;;;;;;;0.98;74.86;97218.98;1773887;78;26790;-84
2020/12/26 01:32:52;;;;;;;13.72;7.40;;;;;;;0.94;75.05;97226.95;1767675;78;25799;-84
2020/12/26 01:35:20;;;;;;;14.78;8.18;;;;;;;0.89;75.00;97222.58;1761983;78;27632;-84
2020/12/26 01:37:47;;;;;;;18.17;8.60;;;;;;;0.87;75.02;97223.23;1780537;78;26317;-84
2020/12/26 01:40:14;;;;;;;15.95;8.28;;;;;;;0.89;74.94;97225.23;1791579;78;25974;-84
2020/12/26 01:42:42;;;;;;;15.40;7.87;;;;;;;0.92;75.09;97226.27;1823155;78;26189;-84
2020/12/26 01:45:09;;;;;;;16.52;7.70;;;;;;;0.94;75.09;97216.31;1823115;78;25743;-83
2020/12/26 01:47:36;;;;;;;15.60;8.00;;;;;;;0.91;75.04;97212.64;1822303;78;27594;-85
2020/12/26 01:50:04;;;;;;;17.35;8.65;;;;;;;0.75;74.90;97213.00;1822972;78;25837;-83
2020/12/26 01:52:31;;;;;;;13.50;7.10;;;;;;;0.71;75.11;97215.99;1793743;78;25948;-84
2020/12/26 01:55:00;;;;;;;12.63;7.10;;;;;;;0.67;75.05;97214.62;1777716;78;26359;-83
2020/12/26 01:57:35;;;;;;;15.63;7.50;;;;;;;0.53;75.11;97221.81;1769761;78;25397;-83
2020/12/26 02:00:05;;;;;;;14.78;7.40;;;;;;;0.54;75.36;97212.02;1779576;78;27689;-84
2020/12/26 02:02:33;;;;;;;16.23;6.87;;;;;;;0.63;75.41;97217.73;1767041;78;25819;-83
2020/12/26 02:05:00;;;;;;;13.38;7.12;;;;;;;0.65;75.29;97215.76;1765843;78;26399;-84
2020/12/26 02:07:28;;;;;;;11.90;6.60;;;;;;;0.56;75.16;97218.02;1762911;78;25876;-83
2020/12/26 02:09:55;;;;;;;12.13;6.65;;;;;;;0.60;75.22;97224.70;1763238;78;25808;-84
2020/12/26 02:12:22;;;;;;;12.15;6.87;;;;;;;0.67;75.21;97225.25;1766433;78;27486;-83
2020/12/26 02:14:50;;;;;;;13.10;7.08;;;;;;;0.75;75.13;97227.13;1765475;78;26300;-84
2020/12/26 02:17:31;;;;;;;18.23;9.23;;;;;;;0.80;75.06;97226.18;1768520;78;25795;-83
2020/12/26 02:19:59;;;;;;;12.25;7.50;;;;;;;0.85;75.00;97226.53;1773098;78;25824;-84
2020/12/26 02:22:26;;;;;;;17.23;7.62;;;;;;;0.89;75.06;97227.90;1765916;78;25823;-83
2020/12/26 02:24:53;;;;;;;15.55;7.53;;;;;;;0.89;75.05;97232.38;1786590;78;27427;-83
2020/12/26 02:27:21;;;;;;;16.52;8.13;;;;;;;0.90;75.02;97230.90;1767328;78;25743;-85
2020/12/26 02:29:48;;;;;;;14.90;8.38;;;;;;;0.92;75.00;97229.42;1769367;78;25831;-84
2020/12/26 02:32:15;;;;;;;14.87;7.95;;;;;;;0.91;74.93;97231.23;1771066;78;26772;-83
2020/12/26 02:34:43;;;;;;;13.45;6.40;;;;;;;0.94;74.96;97230.94;1763274;78;25904;-84
2020/12/26 02:37:13;;;;;;;11.75;6.62;;;;;;;0.92;74.86;97229.42;1767584;78;28369;-83
2020/12/26 02:39:41;;;;;;;10.95;6.40;;;;;;;0.80;74.79;97230.16;1765475;78;25796;-84
2020/12/26 02:42:08;;;;;;;10.40;5.47;;;;;;;0.63;74.64;97226.53;1779031;78;25767;-84
2020/12/26 02:44:36;;;;;;;8.95;5.65;;;;;;;0.46;74.68;97232.72;1765648;78;25913;-83
2020/12/26 02:47:03;;;;;;;10.25;5.95;;;;;;;0.33;74.71;97237.08;1764171;78;25818;-84
2020/12/26 02:49:30;;;;;;;10.40;6.40;;;;;;;0.27;74.76;97242.98;1763245;78;27494;-82
2020/12/26 02:51:58;;;;;;;9.60;5.62;;;;;;;0.23;74.81;97238.98;1768652;78;26136;-84
2020/12/26 02:54:25;;;;;;;11.83;5.80;;;;;;;0.20;74.77;97232.64;1821177;78;25782;-84
2020/12/26 02:56:53;;;;;;;14.70;6.62;;;;;;;0.15;74.85;97240.20;1806207;78;25756;-84
2020/12/26 02:59:20;;;;;;;13.40;7.40;;;;;;;0.11;74.81;97243.33;1796667;78;25822;-83
2020/12/26 03:01:47;;;;;;;12.13;6.62;;;;;;;-0.05;74.82;97236.02;1822949;78;28549;-83
2020/12/26 03:04:15;;;;;;;10.63;6.55;;;;;;;-0.09;75.11;97235.97;1822991;78;26272;-84
2020/12/26 03:06:42;;;;;;;10.90;6.78;;;;;;;-0.08;75.16;97237.15;1823024;78;25785;-84
2020/12/26 03:09:10;;;;;;;11.40;6.67;;;;;;;-0.14;75.31;97240.91;1823097;78;25865;-83
2020/12/26 03:11:37;;;;;;;12.43;6.67;;;;;;;-0.13;75.49;97246.55;1822955;77;25721;-84
2020/12/26 03:14:04;;;;;;;13.18;7.37;;;;;;;-0.11;75.52;97254.69;1822952;78;28527;-84
2020/12/26 03:16:32;;;;;;;13.18;7.35;;;;;;;-0.02;75.61;97254.30;1822913;78;26238;-83
2020/12/26 03:18:59;;;;;;;13.28;7.67;;;;;;;0.07;75.58;97253.89;1822906;78;25675;-84
2020/12/26 03:21:27;;;;;;;13.58;8.10;;;;;;;0.11;75.62;97257.93;1823023;78;25862;-83
2020/12/26 03:23:54;;;;;;;15.28;8.75;;;;;;;0.20;75.57;97267.14;1823133;78;26241;-84
2020/12/26 03:26:21;;;;;;;13.70;8.23;;;;;;;0.28;75.53;97263.73;1822937;78;28459;-84
2020/12/26 03:28:49;;;;;;;16.07;8.03;;;;;;;0.33;75.48;97271.59;1822784;78;26120;-83
2020/12/26 03:31:16;;;;;;;12.90;7.65;;;;;;;0.38;75.52;97271.62;1822976;78;25634;-84
2020/12/26 03:33:43;;;;;;;13.55;8.13;;;;;;;0.38;75.37;97275.11;1794879;78;25828;-84
2020/12/26 03:36:11;;;;;;;12.15;8.05;;;;;;;0.34;75.25;97277.75;1792841;78;25767;-84
2020/12/26 03:38:38;;;;;;;16.10;8.53;;;;;;;0.34;75.20;97281.73;1792627;78;28461;-83
2020/12/26 03:41:06;;;;;;;11.83;8.23;;;;;;;0.33;75.13;97286.69;1792675;78;25862;-84
2020/12/26 03:43:34;;;;;;;13.83;8.28;;;;;;;0.25;75.11;97283.44;1792768;78;26077;-84
2020/12/26 03:46:01;;;;;;;14.60;8.25;;;;;;;0.22;75.27;97285.09;1792838;79;25828;-84
2020/12/26 03:48:28;;;;;;;10.98;6.90;;;;;;;0.23;75.22;97285.93;1792796;78;25799;-84
2020/12/26 03:50:56;;;;;;;10.88;7.72;;;;;;;0.29;75.17;97289.30;1792726;79;27494;-83
2020/12/26 03:53:23;;;;;;;10.93;7.28;;;;;;;0.29;75.15;97294.11;1792725;78;26064;-84
2020/12/26 03:55:51;;;;;;;12.10;7.47;;;;;;;0.26;74.96;97290.42;1792756;78;25738;-83
2020/12/26 03:58:18;;;;;;;11.25;7.22;;;;;;;0.25;74.91;97298.53;1792731;78;25910;-83
2020/12/26 04:00:45;;;;;;;11.68;8.05;;;;;;;0.23;74.95;97298.70;1792706;78;25830;-83
2020/12/26 04:03:12;;;;;;;10.50;7.12;;;;;;;0.16;74.88;97296.78;1792761;78;27478;-84
2020/12/26 04:05:40;;;;;;;11.85;7.10;;;;;;;0.18;74.96;97306.27;1786122;78;26136;-85
2020/12/26 04:08:07;;;;;;;13.72;6.92;;;;;;;0.27;74.99;97306.70;1792763;79;25667;-84
2020/12/26 04:10:34;;;;;;;13.30;7.50;;;;;;;0.26;74.90;97314.31;1792755;78;26083;-84
2020/12/26 04:13:02;;;;;;;14.73;7.45;;;;;;;0.14;74.75;97312.85;1792813;78;25921;-84
2020/12/26 04:15:29;;;;;;;11.22;7.35;;;;;;;0.16;74.89;97312.70;1792830;78;28740;-84
2020/12/26 04:17:57;;;;;;;11.30;7.12;;;;;;;0.08;74.83;97322.75;1792573;78;26148;-85
2020/12/26 04:20:24;;;;;;;11.00;7.35;;;;;;;0.08;74.94;97320.09;1786836;78;25800;-84
2020/12/26 04:22:51;;;;;;;12.63;7.35;;;;;;;0.11;75.03;97323.79;1792563;78;25805;-84
2020/12/26 04:25:18;;;;;;;11.88;7.65;;;;;;;0.13;74.95;97321.80;1792858;78;25881;-85
2020/12/26 04:27:46;;;;;;;12.05;6.97;;;;;;;0.19;74.98;97327.86;1792723;78;27548;-84
2020/12/26 04:30:14;;;;;;;11.80;7.08;;;;;;;0.25;74.99;97324.59;1792638;78;26325;-84
2020/12/26 04:32:41;;;;;;;11.20;7.03;;;;;;;0.29;74.96;97314.02;1788014;78;25782;-85
2020/12/26 04:35:09;;;;;;;12.68;7.08;;;;;;;0.33;74.94;97312.75;1801657;78;26759;-85
2020/12/26 04:37:36;;;;;;;14.70;7.42;;;;;;;0.35;74.72;97326.72;1822652;78;25804;-84
2020/12/26 04:40:03;;;;;;;11.15;7.28;;;;;;;0.34;74.73;97332.17;1822701;78;27547;-85
2020/12/26 04:42:32;;;;;;;10.98;6.62;;;;;;;0.33;74.73;97335.32;1822881;78;25832;-84
2020/12/26 04:45:00;;;;;;;9.23;6.37;;;;;;;0.30;74.72;97332.95;1822823;78;25842;-84
2020/12/26 04:47:43;;;;;;;9.15;6.08;;;;;;;0.26;74.71;97338.21;1822774;78;25894;-85
2020/12/26 04:50:11;;;;;;;9.65;6.47;;;;;;;0.23;74.71;97341.19;1822830;78;25847;-85
2020/12/26 04:52:43;;;;;;;11.73;6.58;;;;;;;0.25;74.82;97345.83;1822934;78;27428;-85
2020/12/26 04:55:11;;;;;;;9.15;6.10;;;;;;;0.24;74.86;97353.97;1822466;78;25931;-85
2020/12/26 04:57:39;;;;;;;11.85;7.10;;;;;;;0.18;74.89;97350.07;1822908;78;25773;-85
2020/12/26 05:00:08;;;;;;;10.32;6.10;;;;;;;0.17;74.98;97347.08;1822940;78;25784;-84
2020/12/26 05:02:41;;;;;;;10.70;6.45;;;;;;;0.20;75.15;97356.56;1815155;78;25773;-84
2020/12/26 05:05:09;;;;;;;9.43;5.85;;;;;;;0.22;75.17;97362.56;1815051;78;27551;-84
2020/12/26 05:07:37;;;;;;;10.10;5.58;;;;;;;0.16;75.08;97353.36;1822753;78;25804;-85
2020/12/26 05:10:06;;;;;;;9.23;6.25;;;;;;;0.09;75.11;97364.23;1822961;78;25843;-85
2020/12/26 05:12:33;;;;;;;9.40;5.47;;;;;;;0.03;75.25;97349.37;1822876;78;26323;-84
2020/12/26 05:15:02;;;;;;;7.62;5.58;;;;;;;0.08;75.27;97362.56;1822857;78;25803;-85
2020/12/26 05:17:30;;;;;;;10.75;6.80;;;;;;;-0.02;75.19;97367.09;1822731;78;27466;-84
2020/12/26 05:19:57;;;;;;;10.20;6.20;;;;;;;-0.09;75.34;97362.00;1822829;78;25821;-85
2020/12/26 05:22:25;;;;;;;10.82;5.95;;;;;;;-0.07;75.59;97351.59;1822918;78;25724;-85
2020/12/26 05:24:52;;;;;;;10.70;7.28;;;;;;;-0.08;75.49;97353.06;1822972;78;26722;-84
2020/12/26 05:27:27;;;;;;;9.48;6.75;;;;;;;-0.10;75.54;97352.37;1822909;78;25729;-84
2020/12/26 05:29:54;;;;;;;9.65;6.50;;;;;;;-0.04;75.66;97347.81;1822877;78;27560;-84
2020/12/26 05:32:24;;;;;;;9.15;6.17;;;;;;;0.02;75.70;97349.87;1811686;78;25804;-84
2020/12/26 05:34:51;;;;;;;9.95;6.58;;;;;;;0.07;75.70;97350.27;1792683;79;25700;-84
2020/12/26 05:37:18;;;;;;;11.50;6.92;;;;;;;0.10;75.67;97353.97;1792795;78;26950;-84
2020/12/26 05:39:46;;;;;;;14.15;8.03;;;;;;;0.13;75.66;97355.47;1792669;79;25827;-84
2020/12/26 05:42:20;;;;;;;16.90;8.30;;;;;;;0.13;75.58;97358.13;1792654;78;28887;-84
2020/12/26 05:44:48;;;;;;;14.40;7.87;;;;;;;0.14;75.58;97357.98;1792512;78;26126;-84
2020/12/26 05:47:15;;;;;;;17.82;9.20;;;;;;;0.17;75.68;97362.16;1792606;78;25750;-85
2020/12/26 05:49:43;;;;;;;14.85;8.65;;;;;;;0.18;75.67;97368.66;1792668;78;25888;-85
2020/12/26 05:52:13;;;;;;;19.50;9.20;;;;;;;0.24;75.76;97374.69;1792760;78;25869;-84
2020/12/26 05:54:50;;;;;;;23.10;10.63;;;;;;;0.27;75.69;97371.74;1792674;78;28359;-84
2020/12/26 05:57:20;;;;;;;19.20;10.48;;;;;;;0.29;75.71;97372.92;1792626;78;26209;-84
2020/12/26 05:59:52;;;;;;;23.80;10.70;;;;;;;0.26;75.72;97376.70;1792760;78;26195;-83
2020/12/26 06:02:29;;;;;;;21.73;10.80;;;;;;;0.26;75.67;97378.03;1792845;78;26149;-85
2020/12/26 06:05:01;;;;;;;17.98;8.85;;;;;;;0.31;75.61;97385.08;1792954;78;25849;-85
2020/12/26 06:07:38;;;;;;;14.43;8.53;;;;;;;0.34;75.65;97392.75;1792839;79;28299;-85
2020/12/26 06:10:09;;;;;;;17.45;8.53;;;;;;;0.39;75.68;97384.81;1792777;78;25711;-85
2020/12/26 06:12:37;;;;;;;13.00;8.25;;;;;;;0.34;75.59;97382.13;1792792;78;25834;-84
2020/12/26 06:15:05;;;;;;;14.10;7.83;;;;;;;0.31;75.63;97378.44;1792841;78;25831;-85
2020/12/26 06:17:34;;;;;;;8.73;6.03;;;;;;;0.21;75.58;97380.31;1792940;78;26415;-84
2020/12/26 06:20:06;;;;;;;8.38;5.50;;;;;;;0.07;75.32;97380.80;1792795;78;28585;-84
2020/12/26 06:22:50;;;;;;;10.45;7.37;;;;;;;0.05;75.45;97384.08;1792846;78;25771;-84
2020/12/26 06:25:23;;;;;;;10.15;6.90;;;;;;;0.03;75.57;97397.98;1792792;78;25806;-84
2020/12/26 06:27:58;;;;;;;11.57;7.03;;;;;;;0.04;75.71;97390.86;1792742;79;25839;-83
2020/12/26 06:30:27;;;;;;;9.58;6.53;;;;;;;0.02;75.76;97391.00;1792906;78;25830;-83
2020/12/26 06:32:57;;;;;;;9.33;6.60;;;;;;;0.03;75.80;97397.98;1792873;78;27496;-84
2020/12/26 06:35:25;;;;;;;13.75;7.62;;;;;;;0.05;75.84;97402.66;1792707;78;25717;-84
2020/12/26 06:38:14;;;;;;;12.82;8.88;;;;;;;0.10;75.86;97400.42;1792844;78;25750;-85
2020/12/26 06:40:53;;;;;;;22.87;12.73;;;;;;;0.15;75.81;97399.47;1792726;78;26845;-83
2020/12/26 06:43:53;;;;;;;33.85;19.73;;;;;;;0.19;75.76;97403.52;1792784;78;25738;-84
2020/12/26 06:46:34;;;;;;;27.80;15.83;;;;;;;0.25;75.75;97403.40;1792912;78;28488;-84
2020/12/26 06:49:02;;;;;;;19.27;11.48;;;;;;;0.31;75.70;97411.63;1792870;78;25794;-85
2020/12/26 06:51:43;;;;;;;12.95;8.43;;;;;;;0.34;75.65;97417.98;1792848;78;25769;-84
2020/12/26 06:54:14;;;;;;;13.53;8.40;;;;;;;0.38;75.61;97429.61;1792961;78;26338;-84
2020/12/26 06:56:46;;;;;;;14.03;9.35;;;;;;;0.26;75.33;97429.80;1792978;78;25742;-84
2020/12/26 06:59:16;;;;;;;22.35;11.08;;;;;;;0.21;75.46;97437.39;1792751;78;27122;-84
2020/12/26 07:01:47;;;;;;;21.37;11.75;;;;;;;0.25;75.55;97436.09;1792700;78;25777;-84
2020/12/26 07:04:23;;;;;;;28.52;15.72;;;;;;;0.26;75.49;97443.08;1792742;78;25679;-84
2020/12/26 07:06:55;;;;;;;34.00;17.70;;;;;;;0.18;75.41;97441.66;1792785;78;25743;-84
2020/12/26 07:09:42;;;;;;;27.45;16.42;;;;;;;0.17;75.52;97447.95;1792794;78;25891;-84
2020/12/26 07:12:11;;;;;;;31.35;19.12;;;;;;;0.19;75.58;97453.95;1792857;79;27562;-84
2020/12/26 07:14:46;;;;;;;41.68;22.75;;;;;;;0.24;75.65;97461.48;1792725;78;25741;-84
2020/12/26 07:17:22;;;;;;;50.52;24.63;;;;;;;0.30;75.72;97463.05;1785471;78;25746;-84
2020/12/26 07:19:51;;;;;;;54.03;25.65;;;;;;;0.33;75.71;97472.06;1770715;78;25835;-84
2020/12/26 07:22:25;;;;;;;49.50;23.98;;;;;;;0.37;75.75;97473.91;1792837;78;25736;-84
2020/12/26 07:24:58;;;;;;;41.20;22.95;;;;;;;0.36;75.67;97484.22;1792837;78;28373;-83
2020/12/26 07:27:41;;;;;;;38.42;21.37;;;;;;;0.44;75.68;97485.64;1869228;76;34862;-83
2020/12/26 07:30:20;;;;;;;65.60;22.80;;;;;;;0.40;75.64;97486.07;1853532;77;25831;-83
2020/12/26 07:32:58;;;;;;;86.57;32.78;;;;;;;0.41;75.69;97490.41;1855588;76;27493;-83
2020/12/26 07:35:35;;;;;;;75.00;29.80;;;;;;;0.43;75.67;97489.77;1855422;77;25695;-83
2020/12/26 07:38:12;;;;;;;58.50;24.00;;;;;;;0.42;75.65;97492.08;1847042;77;26112;-83
2020/12/26 07:40:46;;;;;;;36.68;15.72;;;;;;;0.39;75.61;97496.34;1817265;77;25850;-82
2020/12/26 07:43:18;;;;;;;36.23;15.65;;;;;;;0.34;75.67;97496.31;1841649;76;25753;-83
2020/12/26 07:45:48;;;;;;;31.27;14.40;;;;;;;0.38;75.75;97497.33;1855513;77;27512;-84
2020/12/26 07:48:19;;;;;;;38.28;14.35;;;;;;;0.40;75.79;97498.02;1831523;77;25802;-84
2020/12/26 07:50:48;;;;;;;35.10;15.68;;;;;;;0.48;75.83;97498.15;1851347;77;25765;-84
2020/12/26 07:53:16;;;;;;;33.08;16.10;;;;;;;0.58;75.74;97502.92;1855546;77;26334;-84
2020/12/26 07:55:43;;;;;;;26.40;13.58;;;;;;;0.64;75.65;97500.50;1855597;76;25772;-84
2020/12/26 07:58:14;;;;;;;25.32;14.40;;;;;;;0.59;75.50;97498.80;1855508;77;27480;-84
2020/12/26 08:00:43;;;;;;;27.37;12.55;;;;;;;0.59;75.54;97507.25;1823912;77;25848;-83
2020/12/26 08:03:13;;;;;;;21.35;13.00;;;;;;;0.60;75.43;97508.44;1830608;77;26270;-84
2020/12/26 08:05:44;;;;;;;21.33;12.63;;;;;;;0.62;75.43;97517.07;1820478;77;26259;-85
2020/12/26 08:08:21;;;;;;;20.52;11.65;;;;;;;0.60;75.26;97507.60;1831494;77;25726;-83
2020/12/26 08:10:57;;;;;;;18.77;10.82;;;;;;;0.59;75.16;97509.42;1827657;77;27492;-83
2020/12/26 08:13:25;;;;;;;40.73;23.87;;;;;;;0.62;75.11;97516.23;1855579;77;26084;-84
2020/12/26 08:16:06;;;;;;;39.05;23.00;;;;;;;0.65;75.20;97519.94;1828465;77;25752;-84
2020/12/26 08:18:36;;;;;;;40.17;18.40;;;;;;;0.65;75.13;97523.92;1837040;77;25733;-84
2020/12/26 08:21:06;;;;;;;37.88;17.17;;;;;;;0.67;75.19;97519.30;1848305;77;25735;-84
2020/12/26 08:23:36;;;;;;;34.70;17.52;;;;;;;0.68;75.05;97521.81;1855569;77;27547;-84
2020/12/26 08:26:04;;;;;;;33.45;18.10;;;;;;;0.63;74.98;97525.88;1848845;77;26305;-84
2020/12/26 08:28:32;;;;;;;30.37;16.93;;;;;;;0.65;75.05;97530.56;1826292;77;25742;-84
2020/12/26 08:31:03;;;;;;;30.23;17.10;;;;;;;0.56;74.98;97536.27;1823171;77;25756;-84
2020/12/26 08:33:38;;;;;;;23.42;14.10;;;;;;;0.59;75.08;97537.80;1826348;78;25864;-84
2020/12/26 08:36:13;;;;;;;24.92;14.78;;;;;;;0.59;74.96;97547.09;1822744;77;28464;-84
2020/12/26 08:38:57;;;;;;;20.82;11.60;;;;;;;0.58;74.94;97547.59;1812987;78;25689;-84
2020/12/26 08:41:26;;;;;;;21.50;11.57;;;;;;;0.56;74.81;97548.22;1813991;78;25690;-84
2020/12/26 08:43:55;;;;;;;19.50;12.65;;;;;;;0.64;74.79;97543.50;1816190;78;26044;-84
2020/12/26 08:46:25;;;;;;;21.80;11.73;;;;;;;0.68;74.81;97541.73;1809895;78;25753;-84
2020/12/26 08:48:55;;;;;;;20.40;12.53;;;;;;;0.66;74.72;97534.41;1820663;78;27479;-84
2020/12/26 08:51:27;;;;;;;23.38;12.28;;;;;;;0.66;74.74;97538.87;1799076;78;26154;-84
2020/12/26 08:53:56;;;;;;;106.15;31.15;;;;;;;0.68;74.74;97537.76;1810671;77;25860;-84
2020/12/26 08:56:38;;;;;;;93.05;35.78;;;;;;;0.75;74.82;97543.30;1815120;78;25744;-84
2020/12/26 08:59:06;;;;;;;29.65;13.48;;;;;;;0.82;74.82;97546.23;1803552;78;25928;-84
2020/12/26 09:01:35;;;;;;;24.63;14.03;;;;;;;0.90;74.62;97543.66;1807947;78;27481;-84
2020/12/26 09:04:05;;;;;;;17.40;11.25;;;;;;;0.94;74.49;97548.55;1806270;78;25686;-84
2020/12/26 09:06:39;;;;;;;19.85;12.15;;;;;;;0.98;74.39;97548.58;1808657;78;25707;-84
2020/12/26 09:09:22;;;;;;;20.32;12.03;;;;;;;0.95;74.19;97548.89;1821918;78;25839;-84
2020/12/26 09:12:03;;;;;;;16.97;10.70;;;;;;;1.02;74.37;97553.11;1816710;77;25724;-84
2020/12/26 09:14:30;;;;;;;21.82;13.25;;;;;;;1.02;74.11;97553.95;1821433;78;27475;-84
2020/12/26 09:17:00;;;;;;;26.30;16.73;;;;;;;1.00;73.97;97555.91;1823527;78;25776;-83
2020/12/26 09:19:28;;;;;;;24.18;14.25;;;;;;;1.03;73.85;97562.27;1823640;78;25790;-84
2020/12/26 09:22:09;;;;;;;33.65;17.40;;;;;;;1.06;73.76;97559.81;1814445;78;26222;-83
2020/12/26 09:24:36;;;;;;;39.55;20.50;;;;;;;1.11;73.69;97546.05;1798254;77;25766;-84
2020/12/26 09:27:04;;;;;;;35.68;19.35;;;;;;;1.16;73.63;97552.61;1809193;77;28937;-84
2020/12/26 09:29:31;;;;;;;21.25;11.25;;;;;;;1.19;73.57;97554.14;1841529;77;25727;-84
2020/12/26 09:32:04;;;;;;;17.05;8.08;;;;;;;1.20;73.32;97553.16;1852268;77;25742;-84
2020/12/26 09:34:35;;;;;;;23.52;11.10;;;;;;;1.19;73.14;97551.48;1835583;77;25788;-84
2020/12/26 09:37:10;;;;;;;19.73;10.10;;;;;;;1.15;73.07;97552.76;1852247;77;25749;-84
2020/12/26 09:39:39;;;;;;;24.52;11.97;;;;;;;1.18;73.05;97559.12;1844528;77;27577;-84
2020/12/26 09:42:06;;;;;;;29.77;14.10;;;;;;;1.15;72.99;97556.75;1845641;77;26025;-84
2020/12/26 09:44:34;;;;;;;52.38;18.77;;;;;;;1.12;72.97;97557.03;1851264;77;25849;-84
2020/12/26 09:47:04;;;;;;;25.57;12.15;;;;;;;1.08;72.88;97562.67;1855453;77;25792;-84
2020/12/26 09:49:31;;;;;;;31.10;12.55;;;;;;;1.03;72.97;97558.28;1855532;77;25757;-84
2020/12/26 09:51:59;;;;;;;36.38;14.40;;;;;;;1.01;72.97;97562.91;1849142;77;27483;-85
2020/12/26 09:54:26;;;;;;;30.30;13.98;;;;;;;0.96;72.95;97565.68;1821528;77;26222;-84
2020/12/26 09:56:57;;;;;;;43.35;18.05;;;;;;;0.95;73.05;97567.98;1821545;77;25775;-84
2020/12/26 09:59:24;;;;;;;65.97;24.07;;;;;;;0.78;73.10;97572.25;1821613;77;26163;-84
2020/12/26 10:01:52;;;;;;;27.07;13.30;;;;;;;0.70;73.29;97572.16;1821681;77;25957;-84
2020/12/26 10:04:19;;;;;;;28.25;13.20;;;;;;;0.73;73.41;97575.83;1821672;77;28870;-84
2020/12/26 10:06:47;;;;;;;67.90;31.07;;;;;;;0.80;73.54;97576.09;1821608;77;25714;-84
2020/12/26 10:09:15;;;;;;;75.32;32.40;;;;;;;0.82;73.58;97574.97;1821480;77;25818;-84
2020/12/26 10:11:43;;;;;;;32.23;13.58;;;;;;;0.77;73.65;97573.23;1821513;77;25672;-84
2020/12/26 10:14:10;;;;;;;28.27;14.50;;;;;;;0.71;73.68;97576.00;1821627;77;25852;-84
2020/12/26 10:16:37;;;;;;;38.05;18.35;;;;;;;0.64;73.71;97573.56;1821538;77;28457;-85
2020/12/26 10:19:06;;;;;;;48.28;23.45;;;;;;;0.61;73.98;97573.84;1821568;77;26140;-84
2020/12/26 10:21:33;;;;;;;40.60;17.25;;;;;;;0.67;74.13;97584.39;1821685;77;25724;-84
2020/12/26 10:24:00;;;;;;;45.60;19.45;;;;;;;0.73;74.02;97583.80;1821506;77;25724;-84
2020/12/26 10:26:28;;;;;;;34.95;16.57;;;;;;;0.77;74.13;97587.01;1818916;77;26320;-83
2020/12/26 10:28:55;;;;;;;34.13;16.75;;;;;;;0.77;74.00;97582.53;1784168;79;28763;-85
2020/12/26 10:31:29;;;;;;;61.48;27.70;;;;;;;0.77;74.13;97593.16;1795189;79;26113;-85
2020/12/26 10:33:56;;;;;;;53.85;24.98;;;;;;;0.80;74.06;97576.09;1802977;79;26122;-85
2020/12/26 10:36:26;;;;;;;26.12;11.73;;;;;;;0.78;74.04;97574.91;1795719;79;26072;-84
2020/12/26 10:38:54;;;;;;;17.30;7.67;;;;;;;0.78;73.87;97580.71;1796460;79;25880;-85
2020/12/26 10:41:21;;;;;;;43.33;17.23;;;;;;;0.70;73.60;97585.44;1801272;78;27685;-84
2020/12/26 10:43:49;;;;;;;39.45;14.80;;;;;;;0.63;73.56;97583.00;1781934;79;26363;-84
2020/12/26 10:46:16;;;;;;;26.68;12.00;;;;;;;0.57;73.52;97587.58;1773356;79;25956;-83
2020/12/26 10:48:44;;;;;;;48.13;22.48;;;;;;;0.56;73.62;97581.42;1773022;79;25539;-83
2020/12/26 10:51:11;;;;;;;34.60;14.28;;;;;;;0.60;73.75;97589.95;1768607;79;26578;-83
2020/12/26 10:53:39;;;;;;;39.23;18.70;;;;;;;0.60;73.70;97580.16;1780476;79;27715;-83
2020/12/26 10:56:07;;;;;;;40.90;17.60;;;;;;;0.56;73.67;97578.77;1768468;79;25821;-84
2020/12/26 10:58:34;;;;;;;40.03;19.48;;;;;;;0.56;73.73;97580.59;1771402;79;25273;-83
2020/12/26 11:01:02;;;;;;;37.45;17.27;;;;;;;0.57;73.89;97579.12;1795346;79;25701;-83
2020/12/26 11:03:29;;;;;;;47.00;21.95;;;;;;;0.63;73.92;97593.13;1777292;79;25848;-83
2020/12/26 11:05:57;;;;;;;40.45;18.62;;;;;;;0.72;73.90;97588.80;1789313;79;28453;-83
2020/12/26 11:08:24;;;;;;;44.35;18.67;;;;;;;0.81;73.91;97585.25;1794071;78;26041;-83
2020/12/26 11:10:51;;;;;;;40.67;15.20;;;;;;;0.93;73.83;97589.39;1794212;79;26416;-82
2020/12/26 11:13:19;;;;;;;28.00;10.20;;;;;;;0.95;73.60;97582.12;1795648;79;25757;-82
2020/12/26 11:15:46;;;;;;;26.40;10.15;;;;;;;0.95;73.36;97572.81;1794580;79;25646;-83
2020/12/26 11:18:14;;;;;;;30.23;10.40;;;;;;;0.95;73.42;97576.80;1783612;79;28540;-83
2020/12/26 11:20:41;;;;;;;13.72;6.15;;;;;;;0.98;73.25;97571.17;1792357;79;26143;-83
2020/12/26 11:23:09;;;;;;;33.15;14.47;;;;;;;0.95;73.00;97567.50;1795389;79;25697;-83
2020/12/26 11:25:36;;;;;;;53.13;21.40;;;;;;;1.02;72.99;97568.56;1794252;79;26145;-83
2020/12/26 11:28:04;;;;;;;26.35;11.43;;;;;;;1.11;72.99;97565.99;1818381;77;25929;-82
2020/12/26 11:30:31;;;;;;;13.88;6.83;;;;;;;1.15;73.04;97560.73;1824693;77;27534;-84
2020/12/26 11:32:59;;;;;;;34.35;12.37;;;;;;;1.10;72.56;97566.48;1836935;77;26105;-84
2020/12/26 11:35:26;;;;;;;18.90;7.08;;;;;;;1.12;72.40;97559.70;1838896;77;25366;-82
2020/12/26 11:37:53;;;;;;;13.90;6.03;;;;;;;1.14;72.19;97551.92;1823053;77;26441;-82
2020/12/26 11:40:21;;;;;;;26.42;8.93;;;;;;;1.18;72.14;97553.80;1820217;77;26293;-83